ADDS METAR Data INFO
IDs: Format: Raw Decoded Include TAF

Data at: 0505 UTC 18 Feb 2018

KA39 180455Z AUTO 13003KT 10SM BKN090 OVC120 13/10 A3008 RMK AO2
KA39 180435Z AUTO 09003KT 10SM SCT075 BKN090 OVC120 13/10 A3009 RMK AO2
KA39 180415Z AUTO 09003KT 10SM SCT080 OVC090 13/10 A3009 RMK AO2
KA39 180355Z AUTO 00000KT 10SM BKN090 OVC120 15/10 A3009 RMK AO2
KA39 180335Z AUTO 00000KT 10SM OVC100 14/11 A3010 RMK AO2
KA39 180315Z AUTO 00000KT 10SM BKN090 OVC120 16/10 A3010 RMK AO2
KA39 180255Z AUTO 00000KT 10SM BKN100 OVC120 16/11 A3010 RMK AO2
KA39 180235Z AUTO 00000KT 10SM BKN100 OVC120 17/10 A3011 RMK AO2
KA39 180215Z AUTO 00000KT 10SM BKN100 OVC120 17/10 A3011 RMK AO2
KA39 180155Z AUTO 00000KT 10SM BKN100 OVC120 17/10 A3010 RMK AO2
KA39 180135Z AUTO 00000KT 10SM BKN100 BKN120 17/11 A3010 RMK AO2
KA39 180115Z AUTO 00000KT 10SM BKN110 18/10 A3011 RMK AO2
KA39 180055Z AUTO 24003KT 10SM SCT110 19/09 A3011 RMK AO2
KA39 180035Z AUTO 20003KT 10SM SCT110 19/09 A3011 RMK AO2
KA39 180015Z AUTO 21003KT 10SM CLR 19/09 A3011 RMK AO2
KA39 172355Z AUTO 23003KT 10SM CLR 19/09 A3010 RMK AO2
KA39 172335Z AUTO 00000KT 10SM CLR 19/09 A3010 RMK AO2
KA39 172315Z AUTO 18003KT 10SM CLR 19/09 A3010 RMK AO2
KA39 172255Z AUTO 00000KT 10SM CLR 19/09 A3011 RMK AO2
KA39 172235Z AUTO 00000KT 10SM CLR 19/09 A3012 RMK AO2
KA39 172215Z AUTO 22003KT 10SM CLR 19/08 A3012 RMK AO2
KA39 172155Z AUTO 00000KT 10SM SCT110 19/08 A3013 RMK AO2
KA39 172135Z AUTO 00000KT 10SM SCT110 19/09 A3013 RMK AO2
KA39 172115Z AUTO 00000KT 10SM CLR 20/09 A3014 RMK AO2
KA39 172055Z AUTO 28003KT 10SM CLR 19/10 A3015 RMK AO2
KA39 172035Z AUTO 00000KT 10SM SCT100 SCT120 18/10 A3016 RMK AO2
KA39 172015Z AUTO 31003KT 10SM SCT100 SCT120 18/10 A3017 RMK AO2
KA39 171955Z AUTO 00000KT 10SM SCT110 18/10 A3018 RMK AO2
KA39 171940Z AUTO 34004KT 10SM SCT110 17/10 A3018 RMK AO2
KA39 171915Z AUTO 00000KT 10SM BKN100 BKN120 17/10 A3020 RMK AO2
KA39 171855Z AUTO 32003KT 10SM BKN100 16/10 A3020 RMK AO2
KA39 171835Z AUTO 00000KT 10SM BKN100 BKN120 15/10 A3022 RMK AO2
KA39 171815Z AUTO 00000KT 10SM OVC110 15/10 A3022 RMK AO2
KA39 171755Z AUTO 00000KT 5SM BR SCT002 BKN100 OVC120 13/11 A3022 RMK AO2
KA39 171735Z AUTO 18004KT 1 1/2SM BR OVC002 12/12 A3022 RMK AO2
KA39 171715Z AUTO 19004KT 1/4SM FG 11/10 A3022 RMK AO2
KA39 171655Z AUTO 00000KT M1/4SM FG 10/10 A3022 RMK AO2
KA39 171635Z AUTO 00000KT 1/4SM FG 09/09 A3022 RMK AO2
KA39 171615Z AUTO 19003KT 1/2SM FG BKN001 BKN035 OVC110 09/09 A3022 RMK AO2
KA39 171555Z AUTO 18004KT 1 1/4SM BR OVC110 09/08 A3022 RMK AO2
KA39 171535Z AUTO 20003KT 1 1/2SM BR OVC110 09/08 A3021 RMK AO2
KA39 171515Z AUTO 00000KT 1 1/2SM BR OVC110 09/08 A3021 RMK AO2
KA39 171455Z AUTO 00000KT 1 1/2SM BR OVC110 08/07 A3021 RMK AO2
KA39 171435Z AUTO 04003KT 1 1/2SM BR OVC110 07/07 A3020 RMK AO2
KA39 171415Z AUTO 04005KT 1 1/4SM BR SCT003 OVC110 07/07 A3019 RMK AO2
KA39 171355Z AUTO 02005KT 1/2SM FG OVC003 06/06 A3019 RMK AO2
KA39 171335Z AUTO 00000KT 3/4SM BR BKN003 OVC110 07/07 A3018 RMK AO2
KA39 171315Z AUTO 15003KT 1 1/2SM BR OVC110 07/07 A3017 RMK AO2
KA39 171255Z AUTO 14004KT 1 1/2SM BR OVC110 07/07 A3017 RMK AO2
KA39 171235Z AUTO 14004KT 1 1/2SM BR OVC110 08/07 A3017 RMK AO2
KA39 171215Z AUTO 15004KT 2 1/2SM BR OVC100 08/08 A3017 RMK AO2
KA39 171155Z AUTO 15006KT 2 1/2SM BR BKN100 OVC120 08/08 A3016 RMK AO2
KA39 171135Z AUTO 12003KT 2 1/2SM BR BKN100 OVC120 08/07 A3016 RMK AO2
KA39 171115Z AUTO 13005KT 4SM BR BKN100 OVC120 09/08 A3016 RMK AO2
KA39 171055Z AUTO 13004KT 3 1/2SM BR BKN100 OVC120 09/08 A3016 RMK AO2
KA39 171035Z AUTO 13004KT 3 1/2SM BR BKN100 OVC120 09/08 A3017 RMK AO2
KA39 171015Z AUTO 11006KT 3 1/2SM BR BKN100 OVC120 09/08 A3017 RMK AO2
KA39 170955Z AUTO 12005KT 3 1/2SM BR OVC100 09/08 A3018 RMK AO2
KA39 170935Z AUTO 13005KT 5SM BR OVC100 09/09 A3018 RMK AO2
KA39 170915Z AUTO 14004KT 7SM BR BKN100 OVC120 09/08 A3019 RMK AO2
KA39 170855Z AUTO 12006KT 7SM BR BKN100 OVC120 09/08 A3019 RMK AO2
KA39 170835Z AUTO 12005KT 7SM BR OVC100 09/08 A3018 RMK AO2
KA39 170815Z AUTO 13005KT 5SM BR BKN100 OVC120 09/09 A3018 RMK AO2
KA39 170755Z AUTO 14005KT 7SM BR BKN100 BKN120 10/09 A3018 RMK AO2
KA39 170735Z AUTO 14005KT 10SM BKN100 BKN120 11/09 A3018 RMK AO2
KA39 170715Z AUTO 00000KT 7SM BKN100 BKN120 10/09 A3018 RMK AO2
KA39 170655Z AUTO 14004KT 10SM SCT050 BKN100 BKN120 11/10 A3018 RMK AO2
KA39 170635Z AUTO 14004KT 7SM BKN050 OVC110 11/10 A3017 RMK AO2
KA39 170615Z AUTO 12005KT 7SM BR OVC050 11/10 A3017 RMK AO2
KA39 170555Z AUTO 12004KT 10SM SCT041 BKN050 OVC110 12/10 A3017 RMK AO2
KA39 170535Z AUTO 00000KT 10SM SCT041 BKN110 12/10 A3017 RMK AO2
KA39 170515Z AUTO 19003KT 10SM BKN110 12/10 A3017 RMK AO2
KA39 170455Z AUTO 13003KT 10SM SCT110 12/11 A3016 RMK AO2
KA39 170435Z AUTO 17003KT 7SM CLR 13/11 A3017 RMK AO2
KA39 170415Z AUTO 00000KT 10SM CLR 13/11 A3016 RMK AO2
KA39 170355Z AUTO 24003KT 10SM CLR 14/11 A3015 RMK AO2
KA39 170335Z AUTO 18003KT 10SM CLR 14/11 A3015 RMK AO2
KA39 170315Z AUTO 17004KT 10SM CLR 14/11 A3014 RMK AO2
KA39 170255Z AUTO 16003KT 10SM CLR 14/11 A3014 RMK AO2
KA39 170235Z AUTO 17004KT 10SM CLR 14/11 A3013 RMK AO2
KA39 170215Z AUTO 18003KT 10SM CLR 14/11 A3013 RMK AO2
KA39 170155Z AUTO 17004KT 10SM CLR 15/12 A3012 RMK AO2
KA39 170135Z AUTO 16004KT 10SM CLR 15/12 A3012 RMK AO2
KA39 170115Z AUTO 17004KT 10SM CLR 15/12 A3011 RMK AO2
KA39 170055Z AUTO 17003KT 10SM CLR 16/12 A3010 RMK AO2
KA39 170035Z AUTO 00000KT 10SM CLR 16/11 A3010 RMK AO2
KA39 170015Z AUTO 21003KT 10SM CLR 16/11 A3010 RMK AO2
KA39 162355Z AUTO 28004KT 10SM CLR 16/11 A3011 RMK AO2
KA39 162335Z AUTO 28004KT 10SM CLR 16/11 A3010 RMK AO2
KA39 162315Z AUTO 28004KT 10SM CLR 16/12 A3010 RMK AO2
KA39 162255Z AUTO 28003KT 10SM SCT037 16/11 A3010 RMK AO2
KA39 162235Z AUTO 27004KT 10SM BKN037 16/12 A3010 RMK AO2
KA39 162215Z AUTO 29005KT 10SM SCT037 SCT120 16/11 A3010 RMK AO2
KA39 162155Z AUTO 28007KT 10SM CLR 16/11 A3011 RMK AO2
KA39 162135Z AUTO 28003KT 10SM SCT034 16/11 A3010 RMK AO2
KA39 162115Z AUTO 28005KT 10SM BKN036 16/10 A3011 RMK AO2
KA39 162055Z AUTO 32005KT 10SM OVC034 16/09 A3012 RMK AO2
KA39 162035Z AUTO 32004KT 10SM OVC034 16/09 A3012 RMK AO2
KA39 162015Z AUTO 33008KT 10SM OVC034 16/08 A3013 RMK AO2
KA39 161955Z AUTO 33005KT 10SM OVC034 16/08 A3014 RMK AO2
KA39 161935Z AUTO 33006KT 10SM OVC036 16/07 A3015 RMK AO2
KA39 161915Z AUTO 32005KT 10SM OVC036 15/09 A3015 RMK AO2
KA39 161855Z AUTO 33005KT 10SM OVC036 15/09 A3016 RMK AO2
KA39 161835Z AUTO 35005KT 10SM OVC038 15/10 A3016 RMK AO2
KA39 161815Z AUTO 02005KT 10SM OVC038 14/09 A3017 RMK AO2
KA39 161755Z AUTO 01007KT 10SM OVC040 14/09 A3018 RMK AO2
KA39 161735Z AUTO 01008KT 10SM OVC040 14/09 A3018 RMK AO2
KA39 161715Z AUTO 36007KT 10SM BKN040 13/09 A3019 RMK AO2